sensor_id;sensor_type;location;lat;lon;timestamp;temperature;humidity
68358;DHT22;55276;53.260;50.222;2023-01-10T00:01:36;-3249.50;64.60
68358;DHT22;55276;53.260;50.222;2023-01-10T00:04:02;-3249.40;64.30
68358;DHT22;55276;53.260;50.222;2023-01-10T00:06:29;-3249.40;64.60
68358;DHT22;55276;53.260;50.222;2023-01-10T00:08:55;-3249.40;64.50
68358;DHT22;55276;53.260;50.222;2023-01-10T00:11:22;-3249.40;64.50
68358;DHT22;55276;53.260;50.222;2023-01-10T00:14:07;-3249.40;64.80
68358;DHT22;55276;53.260;50.222;2023-01-10T00:16:33;-3249.50;64.80
68358;DHT22;55276;53.260;50.222;2023-01-10T00:19:01;-3249.50;64.60
68358;DHT22;55276;53.260;50.222;2023-01-10T00:21:27;-3249.40;64.60
68358;DHT22;55276;53.260;50.222;2023-01-10T00:23:55;-3249.50;64.80
68358;DHT22;55276;53.260;50.222;2023-01-10T00:26:29;-3249.60;64.70
68358;DHT22;55276;53.260;50.222;2023-01-10T00:28:55;-3249.50;64.50
68358;DHT22;55276;53.260;50.222;2023-01-10T00:31:21;-3249.50;64.50
68358;DHT22;55276;53.260;50.222;2023-01-10T00:33:47;-3249.40;64.60
68358;DHT22;55276;53.260;50.222;2023-01-10T00:36:13;-3249.40;64.80
68358;DHT22;55276;53.260;50.222;2023-01-10T00:38:47;-3249.40;65.00
68358;DHT22;55276;53.260;50.222;2023-01-10T00:41:14;-3249.40;65.20
68358;DHT22;55276;53.260;50.222;2023-01-10T00:44:01;-3249.40;65.30
68358;DHT22;55276;53.260;50.222;2023-01-10T00:46:28;-3249.60;65.30
68358;DHT22;55276;53.260;50.222;2023-01-10T00:48:54;-3249.60;65.00
68358;DHT22;55276;53.260;50.222;2023-01-10T00:51:21;-3249.50;64.90
68358;DHT22;55276;53.260;50.222;2023-01-10T00:53:48;-3249.60;64.90
68358;DHT22;55276;53.260;50.222;2023-01-10T00:56:15;-3249.70;64.90
68358;DHT22;55276;53.260;50.222;2023-01-10T00:58:45;-3249.70;64.80
68358;DHT22;55276;53.260;50.222;2023-01-10T01:01:11;-3249.70;64.70
68358;DHT22;55276;53.260;50.222;2023-01-10T01:03:37;-3249.60;64.40
68358;DHT22;55276;53.260;50.222;2023-01-10T01:06:04;-3249.60;64.50
68358;DHT22;55276;53.260;50.222;2023-01-10T01:08:31;-3249.60;64.70
68358;DHT22;55276;53.260;50.222;2023-01-10T01:10:57;-3249.70;64.80
68358;DHT22;55276;53.260;50.222;2023-01-10T01:13:23;-3249.60;64.50
68358;DHT22;55276;53.260;50.222;2023-01-10T01:15:50;-3249.60;64.60
68358;DHT22;55276;53.260;50.222;2023-01-10T01:18:19;-3249.70;64.70
68358;DHT22;55276;53.260;50.222;2023-01-10T01:20:46;-3249.80;64.20
68358;DHT22;55276;53.260;50.222;2023-01-10T01:23:14;-3249.90;63.70
68358;DHT22;55276;53.260;50.222;2023-01-10T01:25:40;-3249.80;63.30
68358;DHT22;55276;53.260;50.222;2023-01-10T01:28:06;-3249.80;63.60
68358;DHT22;55276;53.260;50.222;2023-01-10T01:30:33;-3249.80;63.80
68358;DHT22;55276;53.260;50.222;2023-01-10T01:32:59;-3250.00;64.10
68358;DHT22;55276;53.260;50.222;2023-01-10T01:35:25;-3250.00;63.80
68358;DHT22;55276;53.260;50.222;2023-01-10T01:37:51;-3249.90;63.80
68358;DHT22;55276;53.260;50.222;2023-01-10T01:40:20;-3249.90;64.20
68358;DHT22;55276;53.260;50.222;2023-01-10T01:42:48;-3249.90;64.70
68358;DHT22;55276;53.260;50.222;2023-01-10T01:53:48;-3250.00;65.10
68358;DHT22;55276;53.260;50.222;2023-01-10T01:56:41;-3249.80;65.20
68358;DHT22;55276;53.260;50.222;2023-01-10T01:59:15;-3249.80;65.70
68358;DHT22;55276;53.260;50.222;2023-01-10T02:01:45;-3249.70;65.90
68358;DHT22;55276;53.260;50.222;2023-01-10T02:04:17;-3249.80;66.30
68358;DHT22;55276;53.260;50.222;2023-01-10T02:06:46;-3249.90;66.40
68358;DHT22;55276;53.260;50.222;2023-01-10T02:09:24;-3249.80;66.30
68358;DHT22;55276;53.260;50.222;2023-01-10T02:11:51;-3250.00;66.20
68358;DHT22;55276;53.260;50.222;2023-01-10T02:14:18;-3250.10;65.80
68358;DHT22;55276;53.260;50.222;2023-01-10T02:16:45;-3250.10;65.50
68358;DHT22;55276;53.260;50.222;2023-01-10T02:32:57;-3250.40;64.60
68358;DHT22;55276;53.260;50.222;2023-01-10T02:44:43;-3250.60;63.00
68358;DHT22;55276;53.260;50.222;2023-01-10T02:47:13;-3250.60;63.30
68358;DHT22;55276;53.260;50.222;2023-01-10T02:49:41;-3250.40;63.50
68358;DHT22;55276;53.260;50.222;2023-01-10T02:52:08;-3250.40;63.80
68358;DHT22;55276;53.260;50.222;2023-01-10T02:54:35;-3250.50;64.00
68358;DHT22;55276;53.260;50.222;2023-01-10T03:00:14;-3250.80;63.80
68358;DHT22;55276;53.260;50.222;2023-01-10T03:11:03;-3250.80;63.70
68358;DHT22;55276;53.260;50.222;2023-01-10T03:13:52;-3250.60;63.60
68358;DHT22;55276;53.260;50.222;2023-01-10T03:16:23;-3250.50;64.10
68358;DHT22;55276;53.260;50.222;2023-01-10T03:21:59;-3250.60;64.30
68358;DHT22;55276;53.260;50.222;2023-01-10T03:24:33;-3250.50;64.10
68358;DHT22;55276;53.260;50.222;2023-01-10T03:30:44;-3250.40;64.70
68358;DHT22;55276;53.260;50.222;2023-01-10T03:33:14;-3250.60;64.90
68358;DHT22;55276;53.260;50.222;2023-01-10T03:35:58;-3250.50;64.80
68358;DHT22;55276;53.260;50.222;2023-01-10T03:44:17;-3250.70;65.10
68358;DHT22;55276;53.260;50.222;2023-01-10T03:47:21;-3250.70;65.00
68358;DHT22;55276;53.260;50.222;2023-01-10T03:49:54;-3250.60;65.00
68358;DHT22;55276;53.260;50.222;2023-01-10T03:52:21;-3250.70;65.30
68358;DHT22;55276;53.260;50.222;2023-01-10T03:54:48;-3250.80;65.20
68358;DHT22;55276;53.260;50.222;2023-01-10T03:57:16;-3250.80;65.00
68358;DHT22;55276;53.260;50.222;2023-01-10T03:59:42;-3250.90;64.60
68358;DHT22;55276;53.260;50.222;2023-01-10T04:02:11;-3250.80;64.40
68358;DHT22;55276;53.260;50.222;2023-01-10T04:04:37;-3250.80;64.50
68358;DHT22;55276;53.260;50.222;2023-01-10T04:07:04;-3250.70;64.40
68358;DHT22;55276;53.260;50.222;2023-01-10T04:09:32;-3250.80;64.50
68358;DHT22;55276;53.260;50.222;2023-01-10T04:11:58;-3250.80;64.60
68358;DHT22;55276;53.260;50.222;2023-01-10T04:14:25;-3250.90;64.70
68358;DHT22;55276;53.260;50.222;2023-01-10T04:16:52;-3251.00;64.30
68358;DHT22;55276;53.260;50.222;2023-01-10T04:19:18;-3251.00;64.40
68358;DHT22;55276;53.260;50.222;2023-01-10T04:21:44;-3250.90;64.50
68358;DHT22;55276;53.260;50.222;2023-01-10T04:24:10;-3251.00;64.80
68358;DHT22;55276;53.260;50.222;2023-01-10T04:26:37;-3251.00;64.80
68358;DHT22;55276;53.260;50.222;2023-01-10T04:29:03;-3251.00;64.90
68358;DHT22;55276;53.260;50.222;2023-01-10T04:31:31;-3251.10;64.80
68358;DHT22;55276;53.260;50.222;2023-01-10T04:33:57;-3251.10;64.70
68358;DHT22;55276;53.260;50.222;2023-01-10T04:36:23;-3251.10;64.80
68358;DHT22;55276;53.260;50.222;2023-01-10T04:38:50;-3251.20;64.70
68358;DHT22;55276;53.260;50.222;2023-01-10T04:41:17;-3251.10;64.80
68358;DHT22;55276;53.260;50.222;2023-01-10T04:43:46;-3251.20;64.70
68358;DHT22;55276;53.260;50.222;2023-01-10T04:46:12;-3251.40;64.60
68358;DHT22;55276;53.260;50.222;2023-01-10T04:48:38;-3251.50;64.50
68358;DHT22;55276;53.260;50.222;2023-01-10T04:51:05;-3251.40;64.60
68358;DHT22;55276;53.260;50.222;2023-01-10T04:53:31;-3251.50;64.80
68358;DHT22;55276;53.260;50.222;2023-01-10T04:56:04;-3251.70;64.70
68358;DHT22;55276;53.260;50.222;2023-01-10T04:58:38;-3251.70;64.50
68358;DHT22;55276;53.260;50.222;2023-01-10T05:01:12;-3251.80;64.50
68358;DHT22;55276;53.260;50.222;2023-01-10T05:03:39;-3251.90;64.60
68358;DHT22;55276;53.260;50.222;2023-01-10T05:06:06;-3251.90;64.30
68358;DHT22;55276;53.260;50.222;2023-01-10T05:08:33;-3251.90;64.30
68358;DHT22;55276;53.260;50.222;2023-01-10T05:10:59;-3251.90;64.50
68358;DHT22;55276;53.260;50.222;2023-01-10T05:13:26;-3252.00;64.60
68358;DHT22;55276;53.260;50.222;2023-01-10T05:16:01;-3251.90;64.30
68358;DHT22;55276;53.260;50.222;2023-01-10T05:18:28;-3252.00;64.40
68358;DHT22;55276;53.260;50.222;2023-01-10T05:21:04;-3252.00;64.60
68358;DHT22;55276;53.260;50.222;2023-01-10T05:23:32;-3252.10;64.80
68358;DHT22;55276;53.260;50.222;2023-01-10T05:26:07;-3252.20;64.80
68358;DHT22;55276;53.260;50.222;2023-01-10T05:28:34;-3252.20;64.60
68358;DHT22;55276;53.260;50.222;2023-01-10T05:31:00;-3252.30;64.80
68358;DHT22;55276;53.260;50.222;2023-01-10T05:33:27;-3252.40;64.90
68358;DHT22;55276;53.260;50.222;2023-01-10T05:35:53;-3252.50;65.00
68358;DHT22;55276;53.260;50.222;2023-01-10T05:38:22;-3252.60;65.30
68358;DHT22;55276;53.260;50.222;2023-01-10T05:40:53;-3252.70;65.20
68358;DHT22;55276;53.260;50.222;2023-01-10T05:43:19;-3252.80;65.30
68358;DHT22;55276;53.260;50.222;2023-01-10T05:45:45;-3253.00;65.30
68358;DHT22;55276;53.260;50.222;2023-01-10T05:48:12;-3253.10;65.30
68358;DHT22;55276;53.260;50.222;2023-01-10T05:50:38;-3253.10;65.30
68358;DHT22;55276;53.260;50.222;2023-01-10T05:53:04;-3253.30;65.30
68358;DHT22;55276;53.260;50.222;2023-01-10T05:55:32;-3253.40;65.40
68358;DHT22;55276;53.260;50.222;2023-01-10T05:57:59;-3253.50;65.50
68358;DHT22;55276;53.260;50.222;2023-01-10T06:00:25;-3253.70;65.70
68358;DHT22;55276;53.260;50.222;2023-01-10T06:02:55;-3253.90;65.80
68358;DHT22;55276;53.260;50.222;2023-01-10T06:05:23;-3253.80;65.40
68358;DHT22;55276;53.260;50.222;2023-01-10T06:07:49;-3253.80;65.50
68358;DHT22;55276;53.260;50.222;2023-01-10T06:10:16;-3253.90;65.60
68358;DHT22;55276;53.260;50.222;2023-01-10T06:12:42;-3253.90;65.40
68358;DHT22;55276;53.260;50.222;2023-01-10T06:15:15;-3253.90;65.50
68358;DHT22;55276;53.260;50.222;2023-01-10T06:17:42;-3254.00;65.40
68358;DHT22;55276;53.260;50.222;2023-01-10T06:20:10;-3254.00;65.30
68358;DHT22;55276;53.260;50.222;2023-01-10T06:22:39;-3253.90;65.20
68358;DHT22;55276;53.260;50.222;2023-01-10T06:25:08;-3253.80;65.20
68358;DHT22;55276;53.260;50.222;2023-01-10T06:27:34;-3253.80;65.40
68358;DHT22;55276;53.260;50.222;2023-01-10T06:30:12;-3253.90;65.70
68358;DHT22;55276;53.260;50.222;2023-01-10T06:32:39;-3253.90;65.60
68358;DHT22;55276;53.260;50.222;2023-01-10T06:35:06;-3253.80;65.40
68358;DHT22;55276;53.260;50.222;2023-01-10T06:37:32;-3253.90;65.70
68358;DHT22;55276;53.260;50.222;2023-01-10T06:40:01;-3254.10;65.90
68358;DHT22;55276;53.260;50.222;2023-01-10T06:42:28;-3254.00;65.50
68358;DHT22;55276;53.260;50.222;2023-01-10T06:44:54;-3254.00;65.50
68358;DHT22;55276;53.260;50.222;2023-01-10T06:47:20;-3254.10;65.70
68358;DHT22;55276;53.260;50.222;2023-01-10T06:49:46;-3254.10;65.60
68358;DHT22;55276;53.260;50.222;2023-01-10T06:52:12;-3254.10;65.60
68358;DHT22;55276;53.260;50.222;2023-01-10T06:54:39;-3254.30;65.90
68358;DHT22;55276;53.260;50.222;2023-01-10T06:57:07;-3254.50;66.10
68358;DHT22;55276;53.260;50.222;2023-01-10T06:59:33;-3254.50;65.80
68358;DHT22;55276;53.260;50.222;2023-01-10T07:01:59;-3254.30;65.50
68358;DHT22;55276;53.260;50.222;2023-01-10T07:04:25;-3254.20;65.40
68358;DHT22;55276;53.260;50.222;2023-01-10T07:06:53;-3254.30;65.70
68358;DHT22;55276;53.260;50.222;2023-01-10T07:09:19;-3254.30;66.00
68358;DHT22;55276;53.260;50.222;2023-01-10T07:11:45;-3254.40;66.10
68358;DHT22;55276;53.260;50.222;2023-01-10T07:14:11;-3254.40;66.10
68358;DHT22;55276;53.260;50.222;2023-01-10T07:16:37;-3254.30;66.00
68358;DHT22;55276;53.260;50.222;2023-01-10T07:19:03;-3254.20;66.00
68358;DHT22;55276;53.260;50.222;2023-01-10T07:21:30;-3254.20;66.00
68358;DHT22;55276;53.260;50.222;2023-01-10T07:23:56;-3254.20;66.30
68358;DHT22;55276;53.260;50.222;2023-01-10T07:26:25;-3254.30;66.40
68358;DHT22;55276;53.260;50.222;2023-01-10T07:28:51;-3254.30;66.30
68358;DHT22;55276;53.260;50.222;2023-01-10T07:31:23;-3254.40;66.20
68358;DHT22;55276;53.260;50.222;2023-01-10T07:33:51;-3254.50;66.30
68358;DHT22;55276;53.260;50.222;2023-01-10T07:36:17;-3254.50;66.10
68358;DHT22;55276;53.260;50.222;2023-01-10T07:38:44;-3254.50;66.10
68358;DHT22;55276;53.260;50.222;2023-01-10T07:41:10;-3254.60;66.20
68358;DHT22;55276;53.260;50.222;2023-01-10T07:43:36;-3254.90;66.60
68358;DHT22;55276;53.260;50.222;2023-01-10T07:46:05;-3255.00;66.30
68358;DHT22;55276;53.260;50.222;2023-01-10T07:48:35;-3255.20;66.30
68358;DHT22;55276;53.260;50.222;2023-01-10T07:51:02;-3255.20;66.20
68358;DHT22;55276;53.260;50.222;2023-01-10T07:53:28;-3255.30;66.20
68358;DHT22;55276;53.260;50.222;2023-01-10T07:55:59;-3255.40;66.10
68358;DHT22;55276;53.260;50.222;2023-01-10T07:58:25;-3255.70;66.50
68358;DHT22;55276;53.260;50.222;2023-01-10T08:00:55;-3255.80;65.80
68358;DHT22;55276;53.260;50.222;2023-01-10T08:03:22;-3255.60;65.10
68358;DHT22;55276;53.260;50.222;2023-01-10T08:05:49;-3255.30;65.00
68358;DHT22;55276;53.260;50.222;2023-01-10T08:08:15;-3255.00;64.70
68358;DHT22;55276;53.260;50.222;2023-01-10T08:10:42;-3255.00;65.00
68358;DHT22;55276;53.260;50.222;2023-01-10T08:13:10;-3254.90;65.10
68358;DHT22;55276;53.260;50.222;2023-01-10T08:15:37;-3254.90;65.20
68358;DHT22;55276;53.260;50.222;2023-01-10T08:18:03;-3255.00;65.40
68358;DHT22;55276;53.260;50.222;2023-01-10T08:20:32;-3255.10;65.50
68358;DHT22;55276;53.260;50.222;2023-01-10T08:22:59;-3255.20;65.40
68358;DHT22;55276;53.260;50.222;2023-01-10T08:25:25;-3255.20;65.20
68358;DHT22;55276;53.260;50.222;2023-01-10T08:27:52;-3255.40;65.40
68358;DHT22;55276;53.260;50.222;2023-01-10T08:30:18;-3255.50;65.30
68358;DHT22;55276;53.260;50.222;2023-01-10T08:32:47;-3255.50;65.10
68358;DHT22;55276;53.260;50.222;2023-01-10T08:35:13;-3255.50;65.00
68358;DHT22;55276;53.260;50.222;2023-01-10T08:37:39;-3255.60;65.10
68358;DHT22;55276;53.260;50.222;2023-01-10T08:40:06;-3255.80;65.30
68358;DHT22;55276;53.260;50.222;2023-01-10T08:42:32;-3256.00;65.30
68358;DHT22;55276;53.260;50.222;2023-01-10T08:44:59;-3256.10;65.00
68358;DHT22;55276;53.260;50.222;2023-01-10T08:47:26;-3256.10;64.50
68358;DHT22;55276;53.260;50.222;2023-01-10T08:49:52;-3256.20;64.50
68358;DHT22;55276;53.260;50.222;2023-01-10T08:52:18;-3256.10;64.20
68358;DHT22;55276;53.260;50.222;2023-01-10T08:54:44;-3256.20;64.30
68358;DHT22;55276;53.260;50.222;2023-01-10T08:57:14;-3256.40;64.40
68358;DHT22;55276;53.260;50.222;2023-01-10T08:59:40;-3256.60;64.50
68358;DHT22;55276;53.260;50.222;2023-01-10T09:02:12;-3256.70;64.40
68358;DHT22;55276;53.260;50.222;2023-01-10T09:04:38;-3256.90;64.40
68358;DHT22;55276;53.260;50.222;2023-01-10T09:07:04;-3257.10;64.40
68358;DHT22;55276;53.260;50.222;2023-01-10T09:09:30;-3257.20;64.20
68358;DHT22;55276;53.260;50.222;2023-01-10T09:11:56;-3257.40;64.10
68358;DHT22;55276;53.260;50.222;2023-01-10T09:14:31;-3257.40;64.00
68358;DHT22;55276;53.260;50.222;2023-01-10T09:16:58;-3257.60;64.30
68358;DHT22;55276;53.260;50.222;2023-01-10T09:19:24;-3257.90;64.30
68358;DHT22;55276;53.260;50.222;2023-01-10T09:21:50;-3257.90;63.90
68358;DHT22;55276;53.260;50.222;2023-01-10T09:24:16;-3258.00;63.90
68358;DHT22;55276;53.260;50.222;2023-01-10T09:26:49;-3258.20;64.00
68358;DHT22;55276;53.260;50.222;2023-01-10T09:29:17;-3258.30;63.90
68358;DHT22;55276;53.260;50.222;2023-01-10T09:31:43;-3258.40;63.80
68358;DHT22;55276;53.260;50.222;2023-01-10T09:34:09;-3258.50;63.80
68358;DHT22;55276;53.260;50.222;2023-01-10T09:52:32;-3258.20;63.70
68358;DHT22;55276;53.260;50.222;2023-01-10T09:57:46;-3258.10;63.90
68358;DHT22;55276;53.260;50.222;2023-01-10T10:04:34;-3258.10;63.90
68358;DHT22;55276;53.260;50.222;2023-01-10T10:26:55;-3257.60;64.40
68358;DHT22;55276;53.260;50.222;2023-01-10T10:32:29;-3257.20;63.60
68358;DHT22;55276;53.260;50.222;2023-01-10T10:35:37;-3257.30;63.80
68358;DHT22;55276;53.260;50.222;2023-01-10T10:41:33;-3257.50;64.00
68358;DHT22;55276;53.260;50.222;2023-01-10T10:44:15;-3257.50;64.00
68358;DHT22;55276;53.260;50.222;2023-01-10T10:46:43;-3257.50;64.00
68358;DHT22;55276;53.260;50.222;2023-01-10T10:51:55;-3257.40;64.00
68358;DHT22;55276;53.260;50.222;2023-01-10T10:54:21;-3257.30;64.00
68358;DHT22;55276;53.260;50.222;2023-01-10T10:56:48;-3257.30;64.30
68358;DHT22;55276;53.260;50.222;2023-01-10T10:59:18;-3257.30;64.60
68358;DHT22;55276;53.260;50.222;2023-01-10T11:02:40;-3257.40;64.60
68358;DHT22;55276;53.260;50.222;2023-01-10T11:05:45;-3257.40;64.50
68358;DHT22;55276;53.260;50.222;2023-01-10T11:08:16;-3257.20;64.50
68358;DHT22;55276;53.260;50.222;2023-01-10T11:10:47;-3257.20;64.60
68358;DHT22;55276;53.260;50.222;2023-01-10T11:13:19;-3257.20;64.80
68358;DHT22;55276;53.260;50.222;2023-01-10T11:16:06;-3257.30;65.00
68358;DHT22;55276;53.260;50.222;2023-01-10T11:18:32;-3257.40;65.00
68358;DHT22;55276;53.260;50.222;2023-01-10T11:21:12;-3257.30;64.80
68358;DHT22;55276;53.260;50.222;2023-01-10T11:26:35;-3257.10;64.80
68358;DHT22;55276;53.260;50.222;2023-01-10T11:32:16;-3257.00;65.20
68358;DHT22;55276;53.260;50.222;2023-01-10T11:34:49;-3256.90;65.10
68358;DHT22;55276;53.260;50.222;2023-01-10T11:37:44;-3256.90;65.30
68358;DHT22;55276;53.260;50.222;2023-01-10T11:40:27;-3256.90;65.30
68358;DHT22;55276;53.260;50.222;2023-01-10T11:42:58;-3256.90;65.30
68358;DHT22;55276;53.260;50.222;2023-01-10T11:45:28;-3256.90;65.30
68358;DHT22;55276;53.260;50.222;2023-01-10T11:50:34;-3257.00;65.40
68358;DHT22;55276;53.260;50.222;2023-01-10T11:55:54;-3257.00;65.40
68358;DHT22;55276;53.260;50.222;2023-01-10T11:58:20;-3257.00;65.40
68358;DHT22;55276;53.260;50.222;2023-01-10T12:00:48;-3257.00;65.50
68358;DHT22;55276;53.260;50.222;2023-01-10T12:03:25;-3257.00;65.50
68358;DHT22;55276;53.260;50.222;2023-01-10T12:06:01;-3256.90;65.40
68358;DHT22;55276;53.260;50.222;2023-01-10T12:08:37;-3256.90;65.60
68358;DHT22;55276;53.260;50.222;2023-01-10T12:11:04;-3256.70;65.50
68358;DHT22;55276;53.260;50.222;2023-01-10T12:13:44;-3256.60;65.50
68358;DHT22;55276;53.260;50.222;2023-01-10T12:16:27;-3256.50;65.60
68358;DHT22;55276;53.260;50.222;2023-01-10T12:18:58;-3256.40;65.60
68358;DHT22;55276;53.260;50.222;2023-01-10T12:21:40;-3256.50;65.70
68358;DHT22;55276;53.260;50.222;2023-01-10T12:24:29;-3256.50;65.80
68358;DHT22;55276;53.260;50.222;2023-01-10T12:26:59;-3256.40;65.80
68358;DHT22;55276;53.260;50.222;2023-01-10T12:29:34;-3256.40;65.80
68358;DHT22;55276;53.260;50.222;2023-01-10T12:32:04;-3256.30;65.90
68358;DHT22;55276;53.260;50.222;2023-01-10T12:34:46;-3256.30;65.90
68358;DHT22;55276;53.260;50.222;2023-01-10T12:43:02;-3256.00;65.30
68358;DHT22;55276;53.260;50.222;2023-01-10T12:45:58;-3256.00;65.50
68358;DHT22;55276;53.260;50.222;2023-01-10T12:48:44;-3255.90;65.60
68358;DHT22;55276;53.260;50.222;2023-01-10T12:51:15;-3255.90;65.70
68358;DHT22;55276;53.260;50.222;2023-01-10T12:53:47;-3256.00;65.70
68358;DHT22;55276;53.260;50.222;2023-01-10T12:56:16;-3255.80;65.50
68358;DHT22;55276;53.260;50.222;2023-01-10T13:01:55;-3255.60;65.70
68358;DHT22;55276;53.260;50.222;2023-01-10T13:04:27;-3255.50;65.60
68358;DHT22;55276;53.260;50.222;2023-01-10T13:06:54;-3255.50;65.80
68358;DHT22;55276;53.260;50.222;2023-01-10T13:09:24;-3255.40;65.70
68358;DHT22;55276;53.260;50.222;2023-01-10T13:18:16;-3255.20;65.70
68358;DHT22;55276;53.260;50.222;2023-01-10T13:20:43;-3255.10;65.70
68358;DHT22;55276;53.260;50.222;2023-01-10T13:23:30;-3255.10;65.70
68358;DHT22;55276;53.260;50.222;2023-01-10T13:26:04;-3255.10;65.80
68358;DHT22;55276;53.260;50.222;2023-01-10T13:28:32;-3255.10;65.90
68358;DHT22;55276;53.260;50.222;2023-01-10T13:31:07;-3255.10;66.20
68358;DHT22;55276;53.260;50.222;2023-01-10T13:34:07;-3255.20;66.30
68358;DHT22;55276;53.260;50.222;2023-01-10T13:36:49;-3255.20;66.10
68358;DHT22;55276;53.260;50.222;2023-01-10T14:01:35;-3255.00;66.10
68358;DHT22;55276;53.260;50.222;2023-01-10T14:05:05;-3254.90;66.10
68358;DHT22;55276;53.260;50.222;2023-01-10T14:07:49;-3254.90;66.20
68358;DHT22;55276;53.260;50.222;2023-01-10T14:10:23;-3254.80;66.20
68358;DHT22;55276;53.260;50.222;2023-01-10T14:13:16;-3254.70;66.00
68358;DHT22;55276;53.260;50.222;2023-01-10T14:15:47;-3254.70;66.20
68358;DHT22;55276;53.260;50.222;2023-01-10T14:18:19;-3254.60;66.20
68358;DHT22;55276;53.260;50.222;2023-01-10T14:20:56;-3254.60;66.20
68358;DHT22;55276;53.260;50.222;2023-01-10T14:23:33;-3254.60;66.30
68358;DHT22;55276;53.260;50.222;2023-01-10T14:26:00;-3254.60;66.10
68358;DHT22;55276;53.260;50.222;2023-01-10T14:28:29;-3254.70;66.20
68358;DHT22;55276;53.260;50.222;2023-01-10T14:31:03;-3254.70;66.20
68358;DHT22;55276;53.260;50.222;2023-01-10T14:33:32;-3254.70;66.10
68358;DHT22;55276;53.260;50.222;2023-01-10T14:36:02;-3254.70;66.30
68358;DHT22;55276;53.260;50.222;2023-01-10T14:38:31;-3254.70;66.30
68358;DHT22;55276;53.260;50.222;2023-01-10T14:41:15;-3254.80;66.40
68358;DHT22;55276;53.260;50.222;2023-01-10T14:43:47;-3254.80;66.40
68358;DHT22;55276;53.260;50.222;2023-01-10T14:46:29;-3254.80;66.30
68358;DHT22;55276;53.260;50.222;2023-01-10T14:48:56;-3254.80;66.40
68358;DHT22;55276;53.260;50.222;2023-01-10T14:51:27;-3254.80;66.50
68358;DHT22;55276;53.260;50.222;2023-01-10T14:56:25;-3254.90;66.50
68358;DHT22;55276;53.260;50.222;2023-01-10T14:58:51;-3254.90;66.60
68358;DHT22;55276;53.260;50.222;2023-01-10T15:01:25;-3254.90;66.50
68358;DHT22;55276;53.260;50.222;2023-01-10T15:03:53;-3254.80;66.40
68358;DHT22;55276;53.260;50.222;2023-01-10T15:06:24;-3254.80;66.40
68358;DHT22;55276;53.260;50.222;2023-01-10T15:08:58;-3254.80;66.30
68358;DHT22;55276;53.260;50.222;2023-01-10T15:11:26;-3254.80;66.40
68358;DHT22;55276;53.260;50.222;2023-01-10T15:14:00;-3254.80;66.30
68358;DHT22;55276;53.260;50.222;2023-01-10T15:16:33;-3254.70;66.40
68358;DHT22;55276;53.260;50.222;2023-01-10T15:22:32;-3254.70;66.60
68358;DHT22;55276;53.260;50.222;2023-01-10T15:25:02;-3254.80;66.70
68358;DHT22;55276;53.260;50.222;2023-01-10T15:27:29;-3254.80;66.80
68358;DHT22;55276;53.260;50.222;2023-01-10T15:29:57;-3254.80;66.60
68358;DHT22;55276;53.260;50.222;2023-01-10T15:32:34;-3254.70;66.50
68358;DHT22;55276;53.260;50.222;2023-01-10T15:35:05;-3254.80;66.70
68358;DHT22;55276;53.260;50.222;2023-01-10T15:37:35;-3254.80;66.90
68358;DHT22;55276;53.260;50.222;2023-01-10T15:40:06;-3254.80;66.90
68358;DHT22;55276;53.260;50.222;2023-01-10T15:42:44;-3254.80;67.00
68358;DHT22;55276;53.260;50.222;2023-01-10T15:45:37;-3254.80;66.70
68358;DHT22;55276;53.260;50.222;2023-01-10T15:48:27;-3254.70;66.70
68358;DHT22;55276;53.260;50.222;2023-01-10T15:51:02;-3254.60;66.60
68358;DHT22;55276;53.260;50.222;2023-01-10T15:53:52;-3254.60;66.70
68358;DHT22;55276;53.260;50.222;2023-01-10T15:56:27;-3254.60;66.90
68358;DHT22;55276;53.260;50.222;2023-01-10T15:58:55;-3254.70;67.10
68358;DHT22;55276;53.260;50.222;2023-01-10T16:01:25;-3254.70;67.10
68358;DHT22;55276;53.260;50.222;2023-01-10T16:04:04;-3254.70;67.10
68358;DHT22;55276;53.260;50.222;2023-01-10T16:06:39;-3254.70;67.20
68358;DHT22;55276;53.260;50.222;2023-01-10T16:09:17;-3254.80;67.30
68358;DHT22;55276;53.260;50.222;2023-01-10T16:11:51;-3254.90;67.40
68358;DHT22;55276;53.260;50.222;2023-01-10T16:14:36;-3254.80;67.30
68358;DHT22;55276;53.260;50.222;2023-01-10T16:17:04;-3254.80;67.30
68358;DHT22;55276;53.260;50.222;2023-01-10T16:19:33;-3254.80;67.30
68358;DHT22;55276;53.260;50.222;2023-01-10T16:22:02;-3254.80;67.40
68358;DHT22;55276;53.260;50.222;2023-01-10T16:24:30;-3254.90;67.50
68358;DHT22;55276;53.260;50.222;2023-01-10T16:26:58;-3254.90;67.60
68358;DHT22;55276;53.260;50.222;2023-01-10T16:29:28;-3254.90;67.60
68358;DHT22;55276;53.260;50.222;2023-01-10T16:31:57;-3255.00;67.70
68358;DHT22;55276;53.260;50.222;2023-01-10T16:34:27;-3254.90;67.60
68358;DHT22;55276;53.260;50.222;2023-01-10T16:36:56;-3255.00;67.70
68358;DHT22;55276;53.260;50.222;2023-01-10T16:39:26;-3255.00;67.70
68358;DHT22;55276;53.260;50.222;2023-01-10T16:41:54;-3254.90;67.60
68358;DHT22;55276;53.260;50.222;2023-01-10T16:44:39;-3254.90;67.60
68358;DHT22;55276;53.260;50.222;2023-01-10T16:47:54;-3254.80;67.60
68358;DHT22;55276;53.260;50.222;2023-01-10T16:50:20;-3254.90;67.70
68358;DHT22;55276;53.260;50.222;2023-01-10T16:57:07;-3254.80;67.40
68358;DHT22;55276;53.260;50.222;2023-01-10T16:59:40;-3254.70;67.20
68358;DHT22;55276;53.260;50.222;2023-01-10T17:02:15;-3254.70;67.30
68358;DHT22;55276;53.260;50.222;2023-01-10T17:09:01;-3254.60;67.30
68358;DHT22;55276;53.260;50.222;2023-01-10T17:11:34;-3254.60;67.40
68358;DHT22;55276;53.260;50.222;2023-01-10T17:14:02;-3254.70;67.50
68358;DHT22;55276;53.260;50.222;2023-01-10T17:16:32;-3254.70;67.50
68358;DHT22;55276;53.260;50.222;2023-01-10T17:18:59;-3254.70;67.50
68358;DHT22;55276;53.260;50.222;2023-01-10T17:21:28;-3254.70;67.60
68358;DHT22;55276;53.260;50.222;2023-01-10T17:23:55;-3254.70;67.60
68358;DHT22;55276;53.260;50.222;2023-01-10T17:26:21;-3254.70;67.70
68358;DHT22;55276;53.260;50.222;2023-01-10T17:28:47;-3254.70;67.70
68358;DHT22;55276;53.260;50.222;2023-01-10T17:31:17;-3254.70;67.60
68358;DHT22;55276;53.260;50.222;2023-01-10T17:33:45;-3254.80;67.60
68358;DHT22;55276;53.260;50.222;2023-01-10T17:36:15;-3254.70;67.40
68358;DHT22;55276;53.260;50.222;2023-01-10T17:38:41;-3254.70;67.30
68358;DHT22;55276;53.260;50.222;2023-01-10T17:41:08;-3254.60;67.20
68358;DHT22;55276;53.260;50.222;2023-01-10T17:43:37;-3254.60;67.10
68358;DHT22;55276;53.260;50.222;2023-01-10T17:46:04;-3254.50;66.90
68358;DHT22;55276;53.260;50.222;2023-01-10T17:48:36;-3254.50;67.10